VAM Template | Vabird

Vabird! Vabird Marcello Mazzieri




 INFORMACIÓN METAR y TAF
METAR FOR YPAD
ADDS - METARS form results

(0511 UTC 21 October 2020)
Data provider http://aviationweather.gov/metar/data/
 
METAR text: YPAD 210500Z 22011KT CAVOK 21/12 Q1013
Conditions at: YPAD (ADELAIDE INTL AR, AU) observed 0500 UTC 21 October 2020
Temperature: 21.0°C (70°F)
Dewpoint: 12.0°C (54°F) [RH = 56%]
Pressure (altimeter): 29.91 inches Hg (1013.0 mb)
Winds: from the SW (220 degrees) at 13 MPH (11 knots; 5.7 m/s)
Visibility: 6 or more miles (10+ km)
Ceiling: ceiling and visibility are OK
Clouds: unknown
Weather: no significant weather observed at this time

METAR text: YPAD 210430Z 23012KT CAVOK 20/12 Q1013
Conditions at: YPAD (ADELAIDE INTL AR, AU) observed 0430 UTC 21 October 2020
Temperature: 20.0°C (68°F)
Dewpoint: 12.0°C (54°F) [RH = 60%]
Pressure (altimeter): 29.91 inches Hg (1013.0 mb)
Winds: from the SW (230 degrees) at 14 MPH (12 knots; 6.2 m/s)
Visibility: 6 or more miles (10+ km)
Ceiling: ceiling and visibility are OK
Clouds: unknown
Weather: no significant weather observed at this time

Forecast for: YPAD (ADELAIDE INTL AR, AU)
Text: TAF YPAD 202322Z 2100/2206 VRB03KT CAVOK
Forecast period: 0000 to 0100 UTC 21 October 2020
Forecast type: FROM: standard forecast or significant change
Winds: variable direction winds at 3 MPH (3 knots; 1.5 m/s)
Visibility: 6 or more miles (10+ km)
Ceiling: unknown
Clouds: missing
Weather: NSW  (no significant weather)
Text: FM210100 23011KT CAVOK
Forecast period: 0100 to 0800 UTC 21 October 2020
Forecast type: FROM: standard forecast or significant change
Winds: from the SW (230 degrees) at 13 MPH (11 knots; 5.7 m/s)
Visibility: 6 or more miles (10+ km)
Ceiling: unknown
Clouds: missing
Weather: NSW  (no significant weather)
Text: FM210800 15008KT CAVOK
Forecast period: 0800 to 1600 UTC 21 October 2020
Forecast type: FROM: standard forecast or significant change
Winds: from the SSE (150 degrees) at 9 MPH (8 knots; 4.1 m/s)
Visibility: 6 or more miles (10+ km)
Ceiling: unknown
Clouds: missing
Weather: NSW  (no significant weather)
Text: FM211600 VRB03KT CAVOK
Forecast period: 1600 UTC 21 October 2020 to 0300 UTC 22 October 2020
Forecast type: FROM: standard forecast or significant change
Winds: variable direction winds at 3 MPH (3 knots; 1.5 m/s)
Visibility: 6 or more miles (10+ km)
Ceiling: unknown
Clouds: missing
Weather: NSW  (no significant weather)
Text: FM220300 22007KT CAVOK
Forecast period: 0300 to 0600 UTC 22 October 2020
Forecast type: FROM: standard forecast or significant change
Winds: from the SW (220 degrees) at 8 MPH (7 knots; 3.6 m/s)
Visibility: 6 or more miles (10+ km)
Ceiling: unknown
Clouds: missing
Weather: NSW  (no significant weather)

 MAPA DE AEROPUERTO

 INFORMACIÓN DE PISTA